Lynn Spring, Virginia
Current Conditions -  °F | °C
As of 5:15 PM on Monday 20 Oct 2014 (Local Time) from KJFZ Reporting Station
Light Rain Light Rain  
Wind Chill: 57°   Ceiling: 6000
Heat Index: 57°   Visibility: 10mi
Dew Point: 47°   Wind: 8mph
Humidity: 70%   Direction: 210°SSW
Pressure: 30"   Gusts: NA
Location:  37.0813°N, 81.9203°W
Report Text: KJFZ 202115Z AUTO 21007KT 10SM -RA BKN060 OVC075 14/08 A3000 RMK AO2 P0001 T01370083
Loading
Personal Weather Stations






























Interactive Weather Map
Tropical Storm Tracking
New forecast layout! Learn more

10-Day Weather Forecast

Advertisements
Track Severe Weather on mobile